createdAt,value
2022-09-20T00:00:11.878Z,101205.25
2022-09-20T00:01:21.782Z,101208.63
2022-09-20T00:02:23.765Z,101205.72
2022-09-20T00:03:25.513Z,101199.19
2022-09-20T00:04:27.278Z,101207.94
2022-09-20T00:05:29.130Z,101204.94
2022-09-20T00:06:32.810Z,101217.09
2022-09-20T00:07:35.220Z,101212.19
2022-09-20T00:08:37.039Z,101200.88
2022-09-20T00:09:41.175Z,101218.75
2022-09-20T00:10:43.260Z,101217.91
2022-09-20T00:11:45.455Z,101218.09
2022-09-20T00:12:47.126Z,101197.03
2022-09-20T00:13:50.712Z,101218.25
2022-09-20T00:14:52.454Z,101219.13
2022-09-20T00:15:54.369Z,101213.22
2022-09-20T00:16:56.238Z,101218.25
2022-09-20T00:17:58.790Z,101218.47
2022-09-20T00:19:04.225Z,101221.97
2022-09-20T00:20:06.637Z,101217.78
2022-09-20T00:21:16.353Z,101215.75
2022-09-20T00:22:18.099Z,101211.69
2022-09-20T00:23:20.215Z,101215.56
2022-09-20T00:24:21.896Z,101223.00
2022-09-20T00:25:23.687Z,101212.41
2022-09-20T00:26:27.497Z,101223.19
2022-09-20T00:27:29.391Z,101227.59
2022-09-20T00:28:33.742Z,101213.25
2022-09-20T00:29:35.641Z,101233.81
2022-09-20T00:30:37.706Z,101232.13
2022-09-20T00:31:41.590Z,101224.72
2022-09-20T00:32:43.413Z,101234.84
2022-09-20T00:34:03.580Z,101235.03
2022-09-20T00:35:08.415Z,101239.88
2022-09-20T00:36:10.208Z,101238.19
2022-09-20T00:37:11.929Z,101247.31
2022-09-20T00:38:15.229Z,101241.41
2022-09-20T00:39:17.621Z,101239.94
2022-09-20T00:40:21.698Z,101228.31
2022-09-20T00:41:23.870Z,101247.69
2022-09-20T00:42:30.171Z,101239.72
2022-09-20T00:43:45.956Z,101242.13
2022-09-20T00:44:57.675Z,101250.22
2022-09-20T00:46:01.703Z,101243.81
2022-09-20T00:47:08.121Z,101233.84
2022-09-20T00:48:16.371Z,101241.78
2022-09-20T00:49:22.030Z,101224.94
2022-09-20T00:50:44.166Z,101247.16
2022-09-20T00:51:49.670Z,101247.31
2022-09-20T00:53:04.035Z,101235.69
2022-09-20T00:54:09.435Z,101245.84
2022-09-20T00:55:11.786Z,101244.13
2022-09-20T00:56:20.329Z,101244.47
2022-09-20T00:57:22.406Z,101250.75
2022-09-20T00:58:26.486Z,101243.81
2022-09-20T00:59:35.393Z,101259.19
2022-09-20T01:00:39.123Z,101251.91
2022-09-20T01:01:41.925Z,101257.31
2022-09-20T01:02:52.115Z,101262.06
2022-09-20T01:03:54.917Z,101238.13
2022-09-20T01:04:58.202Z,101263.75
2022-09-20T01:06:04.322Z,101267.47
2022-09-20T01:07:08.330Z,101254.50
2022-09-20T01:08:11.374Z,101250.94
2022-09-20T01:09:13.127Z,101252.16
2022-09-20T01:10:14.818Z,101258.69
2022-09-20T01:11:16.994Z,101254.84
2022-09-20T01:12:22.267Z,101265.31
2022-09-20T01:13:24.085Z,101257.34
2022-09-20T01:14:26.899Z,101255.53
2022-09-20T01:15:31.478Z,101267.81
2022-09-20T01:16:34.418Z,101266.13
2022-09-20T01:17:39.280Z,101269.84
2022-09-20T01:18:43.760Z,101239.84
2022-09-20T01:20:29.229Z,101260.72
2022-09-20T01:21:31.535Z,101273.84
2022-09-20T01:23:00.570Z,101278.94
2022-09-20T01:24:27.758Z,101260.03
2022-09-20T01:25:44.947Z,101282.66
2022-09-20T01:27:07.910Z,101273.19
2022-09-20T01:28:09.821Z,101270.00
2022-09-20T01:29:37.513Z,101284.19
2022-09-20T01:30:45.659Z,101280.31
2022-09-20T01:31:56.628Z,101280.31
2022-09-20T01:33:28.772Z,101276.25
2022-09-20T01:34:39.733Z,101272.72
2022-09-20T01:35:47.282Z,101276.28
2022-09-20T01:36:58.036Z,101280.66
2022-09-20T01:38:15.855Z,101281.69
2022-09-20T01:39:37.835Z,101287.75
2022-09-20T01:41:04.385Z,101285.72
2022-09-20T01:42:09.903Z,101277.59
2022-09-20T01:43:44.034Z,101280.28
2022-09-20T01:45:03.955Z,101284.19
2022-09-20T01:46:33.328Z,101277.44
2022-09-20T01:47:49.983Z,101288.25
2022-09-20T01:48:58.221Z,101284.03
2022-09-20T01:51:02.615Z,101287.06
2022-09-20T01:52:13.346Z,101292.09
2022-09-20T01:53:36.319Z,101291.13
2022-09-20T01:55:25.601Z,101289.59
2022-09-20T01:56:50.477Z,101298.38
2022-09-20T01:58:08.148Z,101294.50
2022-09-20T01:59:23.584Z,101305.16
2022-09-20T02:00:37.338Z,101297.22
2022-09-20T02:01:58.811Z,101295.53
2022-09-20T02:03:54.177Z,101303.28
2022-09-20T02:05:10.049Z,101305.50
2022-09-20T02:06:14.627Z,101305.31
2022-09-20T02:07:34.846Z,101314.97
2022-09-20T02:09:07.743Z,101310.72
2022-09-20T02:10:34.392Z,101302.47
2022-09-20T02:12:00.161Z,101311.94
2022-09-20T02:13:27.390Z,101304.00
2022-09-20T02:14:31.403Z,101305.16
2022-09-20T02:15:57.999Z,101313.47
2022-09-20T02:17:13.976Z,101312.09
2022-09-20T02:18:18.392Z,101311.78
2022-09-20T02:19:38.389Z,101306.72
2022-09-20T02:21:05.497Z,101306.72
2022-09-20T02:22:22.885Z,101317.84
2022-09-20T02:23:44.598Z,101313.63
2022-09-20T02:25:01.180Z,101326.97
2022-09-20T02:26:27.853Z,101323.91
2022-09-20T02:27:38.486Z,101316.16
2022-09-20T02:28:53.263Z,101321.91
2022-09-20T02:30:21.986Z,101326.31
2022-09-20T02:31:44.802Z,101326.13
2022-09-20T02:33:06.890Z,101319.53
2022-09-20T02:34:42.280Z,101326.78
2022-09-20T02:36:34.490Z,101323.75
2022-09-20T02:37:51.912Z,101326.97
2022-09-20T02:39:10.653Z,101332.38
2022-09-20T02:40:57.230Z,101311.28
2022-09-20T02:42:14.502Z,101311.81
2022-09-20T02:43:33.119Z,101331.72
2022-09-20T02:44:46.570Z,101332.72
2022-09-20T02:46:04.379Z,101327.66
2022-09-20T02:47:17.327Z,101319.75
2022-09-20T02:48:26.872Z,101328.34
2022-09-20T02:49:59.442Z,101337.81
2022-09-20T02:51:18.402Z,101341.34
2022-09-20T02:52:31.786Z,101332.75
2022-09-20T02:54:01.026Z,101331.53
2022-09-20T02:55:21.158Z,101322.94
2022-09-20T02:56:34.849Z,101336.81
2022-09-20T02:57:45.716Z,101329.31
2022-09-20T02:59:24.396Z,101347.06
2022-09-20T03:00:37.409Z,101349.97
2022-09-20T03:01:53.912Z,101352.66
2022-09-20T03:03:24.510Z,101345.03
2022-09-20T03:04:45.858Z,101355.19
2022-09-20T03:06:02.898Z,101346.59
2022-09-20T03:07:16.482Z,101352.66
2022-09-20T03:08:50.526Z,101316.53
2022-09-20T03:10:08.401Z,101327.31
2022-09-20T03:11:27.553Z,101353.34
2022-09-20T03:12:50.159Z,101355.72
2022-09-20T03:14:04.430Z,101361.13
2022-09-20T03:15:19.007Z,101355.31
2022-09-20T03:16:48.750Z,101368.19
2022-09-20T03:18:08.357Z,101369.03
2022-09-20T03:19:22.278Z,101364.16
2022-09-20T03:20:43.938Z,101356.34
2022-09-20T03:21:54.914Z,101371.53
2022-09-20T03:23:19.570Z,101373.59
2022-09-20T03:24:57.617Z,101379.00
2022-09-20T03:26:17.726Z,101379.00
2022-09-20T03:27:50.149Z,101385.09
2022-09-20T03:29:27.286Z,101383.06
2022-09-20T03:30:44.090Z,101382.53
2022-09-20T03:32:16.503Z,101382.72
2022-09-20T03:33:47.150Z,101394.88
2022-09-20T03:35:16.357Z,101389.13
2022-09-20T03:36:30.333Z,101398.06
2022-09-20T03:37:43.849Z,101398.25
2022-09-20T03:39:02.828Z,101393.31
2022-09-20T03:40:22.927Z,101392.00
2022-09-20T03:41:42.677Z,101395.16
2022-09-20T03:42:51.531Z,101397.84
2022-09-20T03:44:15.338Z,101402.44
2022-09-20T03:45:23.242Z,101406.97
2022-09-20T03:46:30.464Z,101400.22
2022-09-20T03:47:50.791Z,101409.69
2022-09-20T03:49:07.446Z,101412.38
2022-09-20T03:50:42.995Z,101409.53
2022-09-20T03:52:18.315Z,101410.53
2022-09-20T03:53:20.326Z,101412.03
2022-09-20T03:54:24.618Z,101411.03
2022-09-20T03:56:03.735Z,101409.00
2022-09-20T03:57:30.546Z,101419.16
2022-09-20T03:58:55.186Z,101419.66
2022-09-20T04:00:21.397Z,101415.47
2022-09-20T04:01:41.867Z,101421.88
2022-09-20T04:03:05.066Z,101422.50
2022-09-20T04:04:45.406Z,101421.16
2022-09-20T04:06:29.585Z,101423.59
2022-09-20T04:07:56.182Z,101423.72
2022-09-20T04:09:25.637Z,101426.28
2022-09-20T04:10:46.973Z,101425.53
2022-09-20T04:12:03.672Z,101428.09
2022-09-20T04:13:47.860Z,101408.34
2022-09-20T04:15:27.519Z,101428.25
2022-09-20T04:16:58.427Z,101436.53
2022-09-20T04:18:02.981Z,101441.41
2022-09-20T04:19:16.574Z,101428.94
2022-09-20T04:20:36.947Z,101447.50
2022-09-20T04:21:43.858Z,101442.09
2022-09-20T04:22:51.370Z,101442.09
2022-09-20T04:24:11.011Z,101446.47
2022-09-20T04:25:23.830Z,101451.38
2022-09-20T04:26:32.455Z,101451.53
2022-09-20T04:27:44.798Z,101457.13
2022-09-20T04:28:52.874Z,101446.28
2022-09-20T04:30:17.451Z,101462.00
2022-09-20T04:31:37.891Z,101459.31
2022-09-20T04:32:45.111Z,101450.53
2022-09-20T04:33:51.199Z,101460.66
2022-09-20T04:35:20.558Z,101466.91
2022-09-20T04:36:57.564Z,101465.72
2022-09-20T04:38:05.592Z,101469.94
2022-09-20T04:39:32.651Z,101465.38
2022-09-20T04:41:05.610Z,101462.34
2022-09-20T04:42:22.638Z,101464.22
2022-09-20T04:43:51.310Z,101467.75
2022-09-20T04:45:22.486Z,101453.88
2022-09-20T04:46:58.613Z,101465.22
2022-09-20T04:48:33.648Z,101469.63
2022-09-20T04:50:07.817Z,101467.06
2022-09-20T04:51:33.934Z,101479.91
2022-09-20T04:52:41.685Z,101483.59
2022-09-20T04:54:02.493Z,101482.78
2022-09-20T04:55:04.165Z,101487.84
2022-09-20T04:56:58.512Z,101494.75
2022-09-20T04:58:19.454Z,101492.38
2022-09-20T04:59:34.354Z,101482.75
2022-09-20T05:01:17.731Z,101498.78
2022-09-20T05:02:42.069Z,101500.81
2022-09-20T05:04:12.804Z,101499.66
2022-09-20T05:05:44.633Z,101493.56
2022-09-20T05:07:25.967Z,101505.22
2022-09-20T05:08:49.225Z,101509.44
2022-09-20T05:09:57.190Z,101501.84
2022-09-20T05:11:17.381Z,101508.09
2022-09-20T05:12:54.717Z,101503.84
2022-09-20T05:14:22.557Z,101506.91
2022-09-20T05:15:37.473Z,101519.91
2022-09-20T05:17:15.069Z,101501.50
2022-09-20T05:18:16.720Z,101516.69
2022-09-20T05:19:39.654Z,101517.03
2022-09-20T05:20:59.917Z,101517.09
2022-09-20T05:22:30.052Z,101516.09
2022-09-20T05:23:55.536Z,101520.81
2022-09-20T05:25:34.391Z,101520.81
2022-09-20T05:27:13.901Z,101532.66
2022-09-20T05:28:41.938Z,101529.59
2022-09-20T05:30:04.311Z,101531.16
2022-09-20T05:31:19.718Z,101529.78
2022-09-20T05:32:33.398Z,101532.50
2022-09-20T05:33:56.444Z,101536.34
2022-09-20T05:35:06.855Z,101537.22
2022-09-20T05:36:23.642Z,101535.34
2022-09-20T05:37:56.938Z,101538.91
2022-09-20T05:39:14.414Z,101548.34
2022-09-20T05:40:54.234Z,101549.56
2022-09-20T05:42:16.466Z,101538.41
2022-09-20T05:43:30.943Z,101554.28
2022-09-20T05:44:58.192Z,101555.63
2022-09-20T05:46:17.214Z,101561.03
2022-09-20T05:47:28.382Z,101559.91
2022-09-20T05:48:52.211Z,101559.19
2022-09-20T05:50:09.022Z,101558.34
2022-09-20T05:51:29.548Z,101557.53
2022-09-20T05:52:32.207Z,101559.88
2022-09-20T05:53:45.990Z,101562.75
2022-09-20T05:54:54.960Z,101545.50
2022-09-20T05:56:14.494Z,101558.00
2022-09-20T05:58:06.881Z,101559.03
2022-09-20T05:59:37.041Z,101551.72
2022-09-20T06:00:57.623Z,101555.28
2022-09-20T06:02:29.710Z,101566.28
2022-09-20T06:03:43.030Z,101559.03
2022-09-20T06:05:14.350Z,101565.94
2022-09-20T06:06:22.637Z,101566.28
2022-09-20T06:07:37.126Z,101570.84
2022-09-20T06:08:51.855Z,101570.84
2022-09-20T06:10:31.517Z,101565.09
2022-09-20T06:11:47.206Z,101557.47
2022-09-20T06:12:54.949Z,101572.19
2022-09-20T06:14:11.915Z,101573.38
2022-09-20T06:15:44.944Z,101577.59
2022-09-20T06:17:13.529Z,101575.22
2022-09-20T06:18:33.637Z,101578.09
2022-09-20T06:19:39.743Z,101580.13
2022-09-20T06:21:07.662Z,101571.84
2022-09-20T06:22:43.164Z,101566.28
2022-09-20T06:23:45.380Z,101589.59
2022-09-20T06:25:01.102Z,101581.13
2022-09-20T06:26:08.016Z,101583.03
2022-09-20T06:27:24.396Z,101581.34
2022-09-20T06:28:40.078Z,101586.41
2022-09-20T06:29:49.166Z,101583.03
2022-09-20T06:30:55.962Z,101576.28
2022-09-20T06:31:58.224Z,101586.75
2022-09-20T06:33:10.390Z,101577.28
2022-09-20T06:34:15.751Z,101587.91
2022-09-20T06:35:17.583Z,101598.59
2022-09-20T06:36:46.917Z,101572.72
2022-09-20T06:38:18.216Z,101590.13
2022-09-20T06:39:59.316Z,101593.97
2022-09-20T06:41:19.946Z,101596.53
2022-09-20T06:42:25.303Z,101599.38
2022-09-20T06:43:31.500Z,101607.84
2022-09-20T06:44:33.307Z,101598.94
2022-09-20T06:45:35.944Z,101605.00
2022-09-20T06:46:38.529Z,101604.16
2022-09-20T06:47:40.513Z,101593.84
2022-09-20T06:48:42.202Z,101607.03
2022-09-20T06:49:44.501Z,101613.47
2022-09-20T06:50:46.366Z,101608.56
2022-09-20T06:51:50.986Z,101615.31
2022-09-20T06:52:53.733Z,101617.84
2022-09-20T06:53:57.470Z,101612.78
2022-09-20T06:54:59.190Z,101606.00
2022-09-20T06:56:01.977Z,101614.47
2022-09-20T06:57:06.591Z,101620.72
2022-09-20T06:58:09.891Z,101621.38
2022-09-20T06:59:12.980Z,101612.44
2022-09-20T07:00:16.093Z,101620.72
2022-09-20T07:01:29.028Z,101628.69
2022-09-20T07:02:31.357Z,101602.31
2022-09-20T07:03:33.637Z,101616.84
2022-09-20T07:04:35.749Z,101620.56
2022-09-20T07:05:38.975Z,101617.84
2022-09-20T07:06:40.809Z,101624.97
2022-09-20T07:07:44.014Z,101630.38
2022-09-20T07:08:49.000Z,101632.41
2022-09-20T07:09:51.278Z,101626.66
2022-09-20T07:10:53.118Z,101629.50
2022-09-20T07:11:56.095Z,101629.84
2022-09-20T07:13:00.477Z,101630.38
2022-09-20T07:14:03.279Z,101624.97
2022-09-20T07:15:06.267Z,101626.31
2022-09-20T07:16:10.871Z,101633.06
2022-09-20T07:17:13.328Z,101624.63
2022-09-20T07:18:15.117Z,101630.72
2022-09-20T07:19:16.828Z,101632.06
2022-09-20T07:20:21.508Z,101637.47
2022-09-20T07:21:23.838Z,101641.88
2022-09-20T07:22:26.326Z,101641.19
2022-09-20T07:23:32.397Z,101637.47
2022-09-20T07:24:34.165Z,101627.34
2022-09-20T07:25:36.707Z,101647.09
2022-09-20T07:26:39.189Z,101629.03
2022-09-20T07:27:41.700Z,101649.13
2022-09-20T07:28:43.386Z,101646.25
2022-09-20T07:29:46.321Z,101650.66
2022-09-20T07:30:48.171Z,101651.66
2022-09-20T07:31:50.834Z,101649.78
2022-09-20T07:32:52.642Z,101653.34
2022-09-20T07:33:54.481Z,101651.66
2022-09-20T07:34:56.290Z,101662.31
2022-09-20T07:35:58.258Z,101655.38
2022-09-20T07:37:00.198Z,101650.81
2022-09-20T07:38:03.123Z,101646.25
2022-09-20T07:39:04.871Z,101641.19
2022-09-20T07:40:07.397Z,101649.13
2022-09-20T07:41:10.354Z,101655.06
2022-09-20T07:42:13.558Z,101655.53
2022-09-20T07:43:15.471Z,101651.66
2022-09-20T07:44:22.274Z,101655.72
2022-09-20T07:45:24.116Z,101664.00
2022-09-20T07:46:25.883Z,101657.22
2022-09-20T07:47:28.322Z,101651.16
2022-09-20T07:48:32.110Z,101660.81
2022-09-20T07:49:33.871Z,101654.19
2022-09-20T07:50:36.201Z,101675.00
2022-09-20T07:51:37.894Z,101665.00
2022-09-20T07:52:39.719Z,101667.91
2022-09-20T07:53:41.669Z,101665.88
2022-09-20T07:54:43.762Z,101676.69
2022-09-20T07:56:16.605Z,101664.53
2022-09-20T07:57:18.562Z,101675.66
2022-09-20T07:58:20.250Z,101667.38
2022-09-20T07:59:22.191Z,101664.66
2022-09-20T08:00:24.218Z,101680.06
2022-09-20T08:01:26.042Z,101662.81
2022-09-20T08:02:27.938Z,101675.69
2022-09-20T08:03:31.103Z,101673.66
2022-09-20T08:04:32.825Z,101674.81
2022-09-20T08:05:35.875Z,101671.28
2022-09-20T08:06:39.264Z,101656.41
2022-09-20T08:07:41.095Z,101677.53
2022-09-20T08:08:43.591Z,101682.44
2022-09-20T08:09:45.438Z,101683.78
2022-09-20T08:10:47.514Z,101685.63
2022-09-20T08:11:49.572Z,101682.94
2022-09-20T08:14:15.794Z,101687.84
2022-09-20T08:15:17.719Z,101666.56
2022-09-20T08:16:20.890Z,101675.50
2022-09-20T08:17:22.674Z,101678.53
2022-09-20T08:18:28.518Z,101678.38
2022-09-20T08:19:30.568Z,101686.31
2022-09-20T08:20:32.448Z,101684.63
2022-09-20T08:21:35.551Z,101677.72
2022-09-20T08:22:40.472Z,101678.38
2022-09-20T08:23:44.729Z,101679.22
2022-09-20T08:24:47.190Z,101682.78
2022-09-20T08:25:49.908Z,101669.94
2022-09-20T08:26:51.803Z,101685.47
2022-09-20T08:27:54.216Z,101671.78
2022-09-20T08:28:58.177Z,101686.50
2022-09-20T08:30:01.229Z,101685.47
2022-09-20T08:31:10.999Z,101686.31
2022-09-20T08:32:12.763Z,101683.25
2022-09-20T08:33:15.155Z,101662.31
2022-09-20T08:34:18.499Z,101665.88
2022-09-20T08:35:22.551Z,101679.06
2022-09-20T08:36:26.082Z,101679.06
2022-09-20T08:37:27.754Z,101679.88
2022-09-20T08:39:59.410Z,101676.84
2022-09-20T08:41:11.227Z,101670.94
2022-09-20T08:42:25.139Z,101670.75
2022-09-20T08:43:30.096Z,101675.16
2022-09-20T08:44:45.350Z,101680.22
2022-09-20T08:45:47.694Z,101685.47
2022-09-20T08:47:02.596Z,101673.66
2022-09-20T08:48:14.221Z,101676.69
2022-09-20T08:49:29.795Z,101686.16
2022-09-20T08:50:34.358Z,101686.16
2022-09-20T08:51:40.166Z,101681.09
2022-09-20T08:52:49.323Z,101679.38
2022-09-20T08:53:55.873Z,101679.38
2022-09-20T08:54:59.537Z,101670.94
2022-09-20T08:56:01.657Z,101683.78
2022-09-20T08:57:11.266Z,101672.97
2022-09-20T08:58:14.359Z,101686.50
2022-09-20T08:59:19.945Z,101686.50
2022-09-20T09:00:26.467Z,101689.34
2022-09-20T09:01:29.619Z,101684.81
2022-09-20T09:02:33.033Z,101669.59
2022-09-20T09:03:35.016Z,101681.41
2022-09-20T09:04:37.338Z,101680.22
2022-09-20T09:05:39.047Z,101685.47
2022-09-20T09:06:42.403Z,101679.38
2022-09-20T09:07:44.237Z,101685.63
2022-09-20T09:08:53.665Z,101664.66
2022-09-20T09:09:57.071Z,101676.69
2022-09-20T09:11:08.450Z,101659.44
2022-09-20T09:12:22.356Z,101684.13
2022-09-20T09:14:04.706Z,101680.91
2022-09-20T09:15:21.651Z,101685.78
2022-09-20T09:16:34.480Z,101675.31
2022-09-20T09:17:37.140Z,101667.56
2022-09-20T09:18:44.750Z,101674.16
2022-09-20T09:20:22.589Z,101681.75
2022-09-20T09:21:25.870Z,101687.81
2022-09-20T09:22:41.791Z,101664.84
2022-09-20T09:24:01.588Z,101664.50
2022-09-20T09:25:17.035Z,101680.06
2022-09-20T09:26:24.043Z,101679.03
2022-09-20T09:27:26.124Z,101684.63
2022-09-20T09:28:31.774Z,101668.56
2022-09-20T09:29:35.022Z,101675.16
2022-09-20T09:30:47.686Z,101678.72
2022-09-20T09:31:52.512Z,101679.56
2022-09-20T09:33:20.088Z,101682.59
2022-09-20T09:34:29.179Z,101667.88
2022-09-20T09:35:31.879Z,101684.44
2022-09-20T09:36:44.146Z,101666.19
2022-09-20T09:37:57.986Z,101682.59
2022-09-20T09:39:23.482Z,101679.56
2022-09-20T09:40:26.303Z,101683.94
2022-09-20T09:41:35.339Z,101688.03
2022-09-20T09:42:37.273Z,101684.28
2022-09-20T09:43:40.663Z,101686.31
2022-09-20T09:44:42.451Z,101693.59
2022-09-20T09:45:44.232Z,101684.63
2022-09-20T09:46:46.217Z,101668.56
2022-09-20T09:47:48.062Z,101689.19
2022-09-20T09:49:15.685Z,101687.81
2022-09-20T09:50:30.637Z,101676.00
2022-09-20T09:51:32.443Z,101680.56
2022-09-20T09:52:36.427Z,101678.22
2022-09-20T09:53:39.581Z,101683.44
2022-09-20T09:54:50.704Z,101681.75
2022-09-20T09:56:03.640Z,101679.72
2022-09-20T09:57:32.046Z,101682.75
2022-09-20T09:58:55.602Z,101688.16
2022-09-20T10:00:19.264Z,101658.25
2022-09-20T10:02:15.313Z,101680.72
2022-09-20T10:03:35.551Z,101670.22
2022-09-20T10:04:48.294Z,101689.19
2022-09-20T10:06:11.098Z,101682.25
2022-09-20T10:07:25.430Z,101671.94
2022-09-20T10:08:49.404Z,101680.38
2022-09-20T10:10:04.374Z,101678.53
2022-09-20T10:11:27.942Z,101688.69
2022-09-20T10:12:35.746Z,101682.41
2022-09-20T10:13:40.606Z,101689.84
2022-09-20T10:14:48.497Z,101686.47
2022-09-20T10:15:59.752Z,101684.63
2022-09-20T10:17:35.042Z,101687.16
2022-09-20T10:18:48.893Z,101692.22
2022-09-20T10:20:10.557Z,101695.78
2022-09-20T10:21:44.081Z,101700.84
2022-09-20T10:23:44.946Z,101684.44
2022-09-20T10:24:51.351Z,101698.34
2022-09-20T10:26:02.568Z,101670.22
2022-09-20T10:27:33.375Z,101695.28
2022-09-20T10:28:53.378Z,101692.72
2022-09-20T10:30:21.022Z,101697.31
2022-09-20T10:31:42.936Z,101688.00
2022-09-20T10:33:02.187Z,101693.75
2022-09-20T10:34:03.857Z,101700.84
2022-09-20T10:35:08.609Z,101698.63
2022-09-20T10:36:40.519Z,101702.38
2022-09-20T10:37:54.890Z,101687.47
2022-09-20T10:39:10.634Z,101704.75
2022-09-20T10:40:15.433Z,101706.59
2022-09-20T10:42:20.395Z,101702.06
2022-09-20T10:43:46.629Z,101688.53
2022-09-20T10:44:51.231Z,101703.09
2022-09-20T10:46:32.469Z,101696.94
2022-09-20T10:47:47.091Z,101704.91
2022-09-20T10:49:02.234Z,101701.19
2022-09-20T10:50:34.042Z,101714.91
2022-09-20T10:51:55.424Z,101711.88
2022-09-20T10:53:27.885Z,101714.91
2022-09-20T10:54:36.184Z,101704.78
2022-09-20T10:55:48.113Z,101707.28
2022-09-20T10:56:55.655Z,101715.25
2022-09-20T10:58:26.805Z,101708.81
2022-09-20T10:59:39.986Z,101713.91
2022-09-20T11:00:47.445Z,101710.50
2022-09-20T11:01:49.530Z,101710.66
2022-09-20T11:03:00.018Z,101718.28
2022-09-20T11:04:22.015Z,101710.47
2022-09-20T11:05:39.429Z,101707.94
2022-09-20T11:07:03.302Z,101706.09
2022-09-20T11:08:22.869Z,101706.09
2022-09-20T11:09:29.735Z,101721.03
2022-09-20T11:10:39.280Z,101719.66
2022-09-20T11:11:46.826Z,101704.75
2022-09-20T11:12:59.934Z,101720.66
2022-09-20T11:14:11.933Z,101717.94
2022-09-20T11:15:22.657Z,101721.50
2022-09-20T11:16:57.183Z,101716.63
2022-09-20T11:18:02.663Z,101724.41
2022-09-20T11:19:10.935Z,101717.09
2022-09-20T11:20:25.127Z,101723.03
2022-09-20T11:21:39.002Z,101683.78
2022-09-20T11:22:48.259Z,101706.94
2022-09-20T11:23:57.224Z,101714.22
2022-09-20T11:25:14.835Z,101721.34
2022-09-20T11:26:36.518Z,101724.56
2022-09-20T11:27:42.465Z,101728.13
2022-09-20T11:28:50.388Z,101721.03
2022-09-20T11:29:56.670Z,101724.75
2022-09-20T11:31:09.791Z,101718.63
2022-09-20T11:32:17.831Z,101728.44
2022-09-20T11:33:27.458Z,101716.56
2022-09-20T11:34:33.617Z,101715.06
2022-09-20T11:35:40.664Z,101731.16
2022-09-20T11:36:52.309Z,101726.75
2022-09-20T11:38:04.920Z,101728.78
2022-09-20T11:39:19.358Z,101728.28
2022-09-20T11:40:37.067Z,101734.88
2022-09-20T11:41:39.102Z,101711.16
2022-09-20T11:42:42.418Z,101731.84
2022-09-20T11:43:46.114Z,101726.56
2022-09-20T11:44:48.347Z,101723.72
2022-09-20T11:45:56.445Z,101729.59
2022-09-20T11:47:42.950Z,101693.59
2022-09-20T11:48:58.242Z,101726.41
2022-09-20T11:49:59.921Z,101733.69
2022-09-20T11:51:20.371Z,101743.16
2022-09-20T11:52:21.982Z,101740.31
2022-09-20T11:53:57.102Z,101745.38
2022-09-20T11:55:41.843Z,101736.56
2022-09-20T11:56:51.683Z,101752.13
2022-09-20T11:58:08.946Z,101732.50
2022-09-20T11:59:23.374Z,101725.91
2022-09-20T12:00:31.451Z,101742.00
2022-09-20T12:01:36.472Z,101722.50
2022-09-20T12:02:51.760Z,101722.16
2022-09-20T12:04:20.590Z,101744.03
2022-09-20T12:05:33.995Z,101732.50
2022-09-20T12:06:38.433Z,101742.66
2022-09-20T12:07:44.412Z,101727.09
2022-09-20T12:08:50.222Z,101724.03
2022-09-20T12:10:11.000Z,101746.41
2022-09-20T12:11:14.860Z,101731.84
2022-09-20T12:12:41.722Z,101746.06
2022-09-20T12:13:55.887Z,101750.44
2022-09-20T12:14:59.943Z,101743.50
2022-09-20T12:16:08.097Z,101742.81
2022-09-20T12:17:48.369Z,101754.16
2022-09-20T12:18:53.980Z,101750.44
2022-09-20T12:19:55.673Z,101750.78
2022-09-20T12:21:15.394Z,101756.53
2022-09-20T12:22:27.505Z,101752.47
2022-09-20T12:23:38.448Z,101759.94
2022-09-20T12:24:45.099Z,101753.84
2022-09-20T12:26:02.443Z,101756.88
2022-09-20T12:27:29.405Z,101760.94
2022-09-20T12:28:42.827Z,101760.94
2022-09-20T12:29:54.318Z,101757.91
2022-09-20T12:31:29.726Z,101764.31
2022-09-20T12:32:58.359Z,101754.00
2022-09-20T12:34:16.106Z,101758.91
2022-09-20T12:35:36.246Z,101755.84
2022-09-20T12:36:43.339Z,101761.78
2022-09-20T12:37:45.186Z,101764.66
2022-09-20T12:38:51.665Z,101766.00
2022-09-20T12:39:55.868Z,101761.63
2022-09-20T12:41:08.684Z,101774.13
2022-09-20T12:42:10.406Z,101770.41
2022-09-20T12:43:21.820Z,101767.88
2022-09-20T12:44:35.482Z,101758.56
2022-09-20T12:45:37.439Z,101774.81
2022-09-20T12:46:49.834Z,101759.59
2022-09-20T12:47:55.606Z,101777.88
2022-09-20T12:49:54.847Z,101774.47
2022-09-20T12:51:33.633Z,101776.00
2022-09-20T12:52:50.575Z,101784.28
2022-09-20T12:54:02.130Z,101783.78
2022-09-20T12:55:08.961Z,101779.72
2022-09-20T12:56:19.967Z,101775.50
2022-09-20T12:57:35.679Z,101756.88
2022-09-20T12:58:48.487Z,101768.72
2022-09-20T12:59:57.964Z,101759.41
2022-09-20T13:01:06.863Z,101782.59
2022-09-20T13:02:42.717Z,101779.53
2022-09-20T13:03:49.297Z,101780.41
2022-09-20T13:04:53.923Z,101788.69
2022-09-20T13:06:05.810Z,101781.78
2022-09-20T13:07:33.278Z,101781.56
2022-09-20T13:09:05.025Z,101780.22
2022-09-20T13:10:27.307Z,101780.22
2022-09-20T13:11:34.658Z,101788.34
2022-09-20T13:12:38.337Z,101785.31
2022-09-20T13:13:47.697Z,101776.66
2022-09-20T13:14:50.471Z,101789.19
2022-09-20T13:15:53.800Z,101773.97
2022-09-20T13:16:57.780Z,101775.16
2022-09-20T13:18:02.349Z,101775.16
2022-09-20T13:19:07.889Z,101783.28
2022-09-20T13:20:19.530Z,101785.81
2022-09-20T13:21:21.758Z,101786.13
2022-09-20T13:22:29.075Z,101784.09
2022-09-20T13:23:32.246Z,101757.53
2022-09-20T13:24:39.484Z,101783.28
2022-09-20T13:25:41.231Z,101783.09
2022-09-20T13:26:46.077Z,101782.41
2022-09-20T13:28:34.422Z,101787.66
2022-09-20T13:29:44.875Z,101782.94
2022-09-20T13:30:46.682Z,101778.53
2022-09-20T13:31:48.540Z,101791.41
2022-09-20T13:32:51.735Z,101781.91
2022-09-20T13:33:53.958Z,101788.34
2022-09-20T13:35:10.968Z,101782.75
2022-09-20T13:36:13.445Z,101779.06
2022-09-20T13:37:23.708Z,101777.53
2022-09-20T13:38:30.198Z,101760.44
2022-09-20T13:39:36.254Z,101774.81
2022-09-20T13:40:42.381Z,101782.94
2022-09-20T13:41:44.135Z,101779.22
2022-09-20T13:42:48.119Z,101781.25
2022-09-20T13:43:51.044Z,101781.25
2022-09-20T13:44:52.974Z,101785.66
2022-09-20T13:46:00.387Z,101778.69
2022-09-20T13:47:21.153Z,101766.34
2022-09-20T13:48:29.854Z,101773.47
2022-09-20T13:49:32.856Z,101762.97
2022-09-20T13:50:40.041Z,101772.94
2022-09-20T13:51:43.963Z,101774.47
2022-09-20T13:52:48.455Z,101778.34
2022-09-20T13:53:50.267Z,101747.53
2022-09-20T13:54:52.091Z,101770.75
2022-09-20T13:55:57.029Z,101782.06
2022-09-20T13:57:05.153Z,101779.22
2022-09-20T13:58:09.863Z,101773.78
2022-09-20T13:59:19.289Z,101775.50
2022-09-20T14:00:21.213Z,101782.59